createdAt,value
2023-03-26T00:01:08.732Z,87.10
2023-03-26T00:03:37.395Z,87.40
2023-03-26T00:06:07.650Z,87.40
2023-03-26T00:08:36.081Z,87.60
2023-03-26T00:11:04.391Z,87.70
2023-03-26T00:13:33.203Z,87.70
2023-03-26T00:16:03.439Z,87.60
2023-03-26T00:18:32.053Z,87.70
2023-03-26T00:21:01.356Z,87.50
2023-03-26T00:23:30.897Z,87.50
2023-03-26T00:25:59.005Z,87.80
2023-03-26T00:28:27.384Z,87.50
2023-03-26T00:31:00.070Z,87.90
2023-03-26T00:33:31.375Z,88.10
2023-03-26T00:36:04.325Z,88.20
2023-03-26T00:38:33.690Z,88.20
2023-03-26T00:41:06.266Z,88.20
2023-03-26T00:43:35.923Z,88.30
2023-03-26T00:46:04.006Z,88.90
2023-03-26T00:48:44.448Z,89.00
2023-03-26T00:51:15.563Z,88.80
2023-03-26T00:53:44.536Z,89.10
2023-03-26T00:56:13.087Z,89.20
2023-03-26T00:58:41.374Z,89.20
2023-03-26T01:01:13.594Z,89.20
2023-03-26T01:04:00.696Z,89.90
2023-03-26T01:06:36.264Z,90.20
2023-03-26T01:09:13.432Z,90.20
2023-03-26T01:11:41.510Z,90.30
2023-03-26T01:14:12.824Z,90.30
2023-03-26T01:16:44.959Z,90.30
2023-03-26T01:19:20.646Z,90.40
2023-03-26T01:21:48.527Z,90.60
2023-03-26T01:24:17.817Z,90.60
2023-03-26T01:27:10.632Z,90.80
2023-03-26T01:29:45.153Z,90.80
2023-03-26T01:32:22.111Z,90.70
2023-03-26T01:35:00.899Z,90.70
2023-03-26T01:37:38.453Z,90.70
2023-03-26T01:40:13.132Z,90.80
2023-03-26T01:42:46.326Z,90.80
2023-03-26T01:45:18.981Z,91.20
2023-03-26T01:47:47.371Z,91.20
2023-03-26T01:50:15.638Z,91.30
2023-03-26T01:52:43.480Z,91.20
2023-03-26T01:55:14.428Z,91.40
2023-03-26T01:57:51.658Z,91.50
2023-03-26T02:00:27.482Z,91.60
2023-03-26T02:03:18.078Z,91.70
2023-03-26T02:05:54.694Z,92.00
2023-03-26T02:08:35.641Z,91.90
2023-03-26T02:11:11.556Z,91.90
2023-03-26T02:13:40.518Z,91.70
2023-03-26T02:16:11.803Z,91.60
2023-03-26T02:18:39.904Z,91.50
2023-03-26T02:21:11.012Z,91.40
2023-03-26T02:23:40.279Z,91.40
2023-03-26T02:26:11.058Z,91.40
2023-03-26T02:28:39.850Z,90.90
2023-03-26T02:31:09.708Z,90.90
2023-03-26T02:33:38.449Z,90.80
2023-03-26T02:36:08.598Z,91.00
2023-03-26T02:38:36.762Z,90.90
2023-03-26T02:41:05.704Z,91.00
2023-03-26T02:43:35.077Z,91.30
2023-03-26T02:46:03.057Z,91.30
2023-03-26T02:48:31.362Z,91.50
2023-03-26T02:50:59.259Z,91.80
2023-03-26T02:53:29.880Z,91.80
2023-03-26T02:55:58.678Z,92.10
2023-03-26T02:58:27.152Z,92.00
2023-03-26T03:00:57.395Z,92.00
2023-03-26T03:03:26.854Z,92.00
2023-03-26T03:05:56.079Z,91.90
2023-03-26T03:08:26.246Z,91.80
2023-03-26T03:10:59.214Z,91.90
2023-03-26T03:13:27.531Z,91.70
2023-03-26T03:15:57.636Z,91.70
2023-03-26T03:18:25.761Z,91.90
2023-03-26T03:20:53.913Z,92.00
2023-03-26T03:23:22.180Z,91.90
2023-03-26T03:25:52.694Z,91.90
2023-03-26T03:28:20.849Z,91.90
2023-03-26T03:30:49.033Z,91.70
2023-03-26T03:33:20.343Z,91.80
2023-03-26T03:35:49.536Z,91.90
2023-03-26T03:38:19.258Z,92.00
2023-03-26T03:40:47.320Z,92.00
2023-03-26T03:43:15.245Z,92.00
2023-03-26T03:45:43.438Z,92.00
2023-03-26T03:48:11.342Z,92.10
2023-03-26T03:50:40.596Z,92.10
2023-03-26T03:53:08.433Z,92.00
2023-03-26T03:55:38.342Z,91.90
2023-03-26T03:58:09.118Z,91.90
2023-03-26T04:00:38.273Z,91.90
2023-03-26T04:03:06.474Z,91.70
2023-03-26T04:05:34.569Z,91.70
2023-03-26T04:08:03.806Z,91.70
2023-03-26T04:10:31.686Z,91.60
2023-03-26T04:12:59.581Z,91.50
2023-03-26T04:15:27.455Z,91.50
2023-03-26T04:17:55.418Z,91.70
2023-03-26T04:20:23.341Z,91.50
2023-03-26T04:22:51.151Z,91.50
2023-03-26T04:25:21.361Z,91.40
2023-03-26T04:27:49.796Z,91.50
2023-03-26T04:30:21.026Z,91.60
2023-03-26T04:32:48.940Z,91.50
2023-03-26T04:35:19.567Z,91.30
2023-03-26T04:37:47.845Z,91.40
2023-03-26T04:40:19.412Z,91.70
2023-03-26T04:42:48.889Z,91.80
2023-03-26T04:45:22.918Z,92.10
2023-03-26T04:47:51.438Z,92.20
2023-03-26T04:50:19.416Z,92.30
2023-03-26T04:52:48.431Z,92.40
2023-03-26T04:55:24.476Z,92.40
2023-03-26T04:57:57.196Z,92.70
2023-03-26T05:00:25.486Z,93.00
2023-03-26T05:02:56.115Z,93.10
2023-03-26T05:05:24.732Z,93.10
2023-03-26T05:07:52.565Z,93.20
2023-03-26T05:10:21.380Z,93.20
2023-03-26T05:12:49.470Z,93.30
2023-03-26T05:15:18.869Z,93.10
2023-03-26T05:17:46.862Z,93.20
2023-03-26T05:20:20.904Z,93.20
2023-03-26T05:22:49.095Z,93.30
2023-03-26T05:25:17.375Z,93.10
2023-03-26T05:27:45.231Z,93.20
2023-03-26T05:30:15.936Z,93.10
2023-03-26T05:32:46.134Z,92.80
2023-03-26T05:35:16.857Z,92.70
2023-03-26T05:37:45.495Z,92.50
2023-03-26T05:40:15.085Z,92.40
2023-03-26T05:42:43.015Z,92.40
2023-03-26T05:45:13.142Z,92.30
2023-03-26T05:47:41.120Z,92.20
2023-03-26T05:50:12.366Z,92.10
2023-03-26T05:52:40.394Z,92.00
2023-03-26T05:55:09.128Z,91.80
2023-03-26T05:57:37.649Z,92.10
2023-03-26T06:00:08.855Z,92.20
2023-03-26T06:02:36.953Z,92.40
2023-03-26T06:05:05.603Z,92.20
2023-03-26T06:07:35.169Z,92.20
2023-03-26T06:10:03.461Z,92.20
2023-03-26T06:12:31.316Z,92.20
2023-03-26T06:14:59.187Z,92.20
2023-03-26T06:17:27.099Z,92.20
2023-03-26T06:19:55.131Z,92.20
2023-03-26T06:22:22.988Z,92.20
2023-03-26T06:24:52.852Z,92.00
2023-03-26T06:27:20.761Z,92.30
2023-03-26T06:29:49.088Z,92.90
2023-03-26T06:32:20.113Z,92.30
2023-03-26T06:34:48.642Z,92.30
2023-03-26T06:37:16.889Z,92.40
2023-03-26T06:39:44.776Z,92.40
2023-03-26T06:42:14.000Z,92.40
2023-03-26T06:44:41.903Z,92.10
2023-03-26T06:47:09.823Z,91.80
2023-03-26T06:49:38.212Z,91.80
2023-03-26T06:52:06.338Z,91.50
2023-03-26T06:54:34.194Z,91.60
2023-03-26T06:57:02.156Z,91.40
2023-03-26T06:59:31.641Z,91.20
2023-03-26T07:01:59.525Z,90.60
2023-03-26T07:04:27.836Z,90.60
2023-03-26T07:06:55.934Z,90.50
2023-03-26T07:09:23.918Z,90.50
2023-03-26T07:11:51.769Z,90.20
2023-03-26T07:14:19.600Z,90.30
2023-03-26T07:16:49.127Z,89.80
2023-03-26T07:19:17.147Z,90.00
2023-03-26T07:21:46.574Z,90.20
2023-03-26T07:24:15.496Z,90.10
2023-03-26T07:26:54.004Z,90.00
2023-03-26T07:29:29.331Z,90.40
2023-03-26T07:32:04.368Z,90.20
2023-03-26T07:34:44.520Z,90.20
2023-03-26T07:37:24.250Z,90.00
2023-03-26T07:39:58.601Z,90.40
2023-03-26T07:42:45.656Z,90.60
2023-03-26T07:45:23.943Z,90.40
2023-03-26T07:47:55.287Z,90.20
2023-03-26T07:50:25.584Z,89.30
2023-03-26T07:52:54.993Z,89.30
2023-03-26T07:55:23.310Z,90.20
2023-03-26T07:58:02.049Z,90.70
2023-03-26T08:00:34.518Z,90.60
2023-03-26T08:03:18.084Z,90.40
2023-03-26T08:05:54.237Z,89.10
2023-03-26T08:08:29.069Z,88.10
2023-03-26T08:11:12.820Z,89.20
2023-03-26T08:13:56.897Z,89.40
2023-03-26T08:16:29.706Z,89.50
2023-03-26T08:19:07.850Z,88.60
2023-03-26T08:21:39.645Z,90.30
2023-03-26T08:24:14.553Z,88.60
2023-03-26T08:26:49.388Z,89.10
2023-03-26T08:29:26.666Z,87.30
2023-03-26T08:31:57.400Z,87.90
2023-03-26T08:34:26.690Z,87.60
2023-03-26T08:36:54.567Z,88.70
2023-03-26T08:39:23.205Z,89.30
2023-03-26T08:42:38.220Z,90.30
2023-03-26T08:45:31.626Z,91.10
2023-03-26T08:48:24.847Z,90.40
2023-03-26T08:51:19.625Z,90.90
2023-03-26T08:54:12.528Z,90.80
2023-03-26T08:56:52.449Z,90.90
2023-03-26T08:59:51.187Z,91.30
2023-03-26T09:02:45.924Z,91.30
2023-03-26T09:05:42.384Z,91.70
2023-03-26T09:08:36.764Z,92.00
2023-03-26T09:11:27.240Z,92.50
2023-03-26T09:14:24.973Z,92.70
2023-03-26T09:17:23.414Z,93.00
2023-03-26T09:20:33.067Z,93.50
2023-03-26T09:23:24.897Z,93.50
2023-03-26T09:26:12.378Z,93.40
2023-03-26T09:29:18.276Z,93.80
2023-03-26T09:32:10.551Z,94.30
2023-03-26T09:35:01.731Z,94.50
2023-03-26T09:37:56.270Z,94.90
2023-03-26T09:40:36.724Z,94.90
2023-03-26T09:43:28.982Z,94.80
2023-03-26T09:46:06.915Z,95.50
2023-03-26T09:49:02.870Z,95.40
2023-03-26T09:51:49.413Z,95.40
2023-03-26T09:54:56.013Z,96.00
2023-03-26T09:57:42.515Z,96.40
2023-03-26T10:00:24.292Z,96.70
2023-03-26T10:03:09.320Z,96.60
2023-03-26T10:05:47.768Z,96.80
2023-03-26T10:08:47.529Z,97.00
2023-03-26T10:11:22.243Z,97.50
2023-03-26T10:14:01.214Z,97.10
2023-03-26T10:16:37.012Z,96.60
2023-03-26T10:19:23.489Z,95.30
2023-03-26T10:22:00.409Z,95.60
2023-03-26T10:24:40.676Z,95.90
2023-03-26T10:27:24.320Z,96.10
2023-03-26T10:30:19.194Z,96.50
2023-03-26T10:32:58.814Z,97.60
2023-03-26T10:35:40.697Z,97.20
2023-03-26T10:38:19.256Z,97.30
2023-03-26T10:40:59.543Z,97.50
2023-03-26T10:43:49.706Z,98.00
2023-03-26T10:46:58.112Z,98.10
2023-03-26T10:49:52.329Z,98.00
2023-03-26T10:52:23.486Z,97.60
2023-03-26T10:54:56.951Z,97.50
2023-03-26T10:57:39.458Z,97.70
2023-03-26T11:00:17.312Z,97.70
2023-03-26T11:02:56.462Z,97.50
2023-03-26T11:05:47.402Z,97.60
2023-03-26T11:08:31.498Z,97.30
2023-03-26T11:11:06.235Z,97.20
2023-03-26T11:13:45.245Z,97.60
2023-03-26T11:16:18.981Z,97.70
2023-03-26T11:18:54.626Z,97.70
2023-03-26T11:21:27.166Z,97.80
2023-03-26T11:24:12.351Z,98.70
2023-03-26T11:26:50.376Z,98.20
2023-03-26T11:29:31.437Z,97.80
2023-03-26T11:32:06.433Z,98.30
2023-03-26T11:34:39.455Z,97.40
2023-03-26T11:37:15.097Z,97.20
2023-03-26T11:39:48.569Z,97.40
2023-03-26T11:42:18.690Z,97.70
2023-03-26T11:44:52.295Z,97.90
2023-03-26T11:47:25.718Z,97.90
2023-03-26T11:49:59.900Z,97.80
2023-03-26T11:52:28.436Z,97.40
2023-03-26T11:54:58.518Z,96.80
2023-03-26T11:57:33.320Z,96.70
2023-03-26T12:00:15.868Z,96.70
2023-03-26T12:02:44.137Z,97.40
2023-03-26T12:05:22.653Z,97.80
2023-03-26T12:07:55.858Z,98.20
2023-03-26T12:10:30.968Z,98.10
2023-03-26T12:13:01.259Z,98.10
2023-03-26T12:15:30.999Z,98.80
2023-03-26T12:18:18.477Z,98.20
2023-03-26T12:20:48.217Z,97.50
2023-03-26T12:23:38.680Z,98.00
2023-03-26T12:26:15.495Z,99.90
2023-03-26T12:28:47.252Z,96.70
2023-03-26T12:31:18.181Z,94.20
2023-03-26T12:33:52.456Z,88.60
2023-03-26T12:36:26.675Z,91.00
2023-03-26T12:39:16.968Z,88.30
2023-03-26T12:43:40.240Z,85.30
2023-03-26T12:44:53.289Z,79.10
2023-03-26T12:47:58.656Z,76.30
2023-03-26T12:50:15.689Z,80.00
2023-03-26T12:53:03.920Z,82.40
2023-03-26T12:55:46.699Z,82.10
2023-03-26T12:58:25.493Z,81.80
2023-03-26T13:01:03.361Z,80.00
2023-03-26T13:03:42.791Z,81.70
2023-03-26T13:06:24.528Z,80.70
2023-03-26T13:09:23.734Z,85.00
2023-03-26T13:12:02.593Z,86.20
2023-03-26T13:15:01.362Z,87.30
2023-03-26T13:17:37.907Z,88.30
2023-03-26T13:20:12.620Z,85.00
2023-03-26T13:22:50.999Z,90.70
2023-03-26T13:25:33.014Z,88.90
2023-03-26T13:28:13.028Z,82.30
2023-03-26T13:30:51.170Z,79.70
2023-03-26T13:33:40.901Z,78.80
2023-03-26T13:36:22.353Z,80.80
2023-03-26T13:39:03.393Z,85.70
2023-03-26T13:41:40.311Z,87.30
2023-03-26T13:44:15.403Z,88.80
2023-03-26T13:46:49.449Z,90.60
2023-03-26T13:49:21.830Z,92.40
2023-03-26T13:51:53.741Z,93.10
2023-03-26T13:54:28.598Z,94.70
2023-03-26T13:57:04.598Z,95.10
2023-03-26T13:59:39.558Z,95.50
2023-03-26T14:02:12.742Z,96.80
2023-03-26T14:04:46.385Z,97.40
2023-03-26T14:07:21.178Z,98.20
2023-03-26T14:09:54.370Z,97.90
2023-03-26T14:12:32.675Z,96.80
2023-03-26T14:15:04.215Z,96.70
2023-03-26T14:17:39.505Z,96.90
2023-03-26T14:20:33.677Z,97.00
2023-03-26T14:23:33.451Z,97.30
2023-03-26T14:26:15.024Z,96.70
2023-03-26T14:29:14.281Z,97.10
2023-03-26T14:31:48.611Z,97.50
2023-03-26T14:34:45.702Z,97.90
2023-03-26T14:37:40.740Z,98.10
2023-03-26T14:40:31.372Z,98.20
2023-03-26T14:43:15.346Z,98.80
2023-03-26T14:45:57.421Z,98.10
2023-03-26T14:48:51.313Z,97.20
2023-03-26T14:51:29.821Z,96.80
2023-03-26T14:54:02.126Z,97.30
2023-03-26T14:56:44.603Z,96.20
2023-03-26T14:59:51.088Z,95.10
2023-03-26T15:03:03.228Z,94.60
2023-03-26T15:05:54.218Z,93.50
2023-03-26T15:08:58.410Z,92.70
2023-03-26T15:11:31.721Z,93.30
2023-03-26T15:14:17.202Z,92.80
2023-03-26T15:17:34.414Z,94.70
2023-03-26T15:20:41.930Z,94.80
2023-03-26T15:23:51.770Z,94.30
2023-03-26T15:27:19.558Z,94.20
2023-03-26T15:30:43.472Z,94.30
2023-03-26T15:33:43.816Z,94.20
2023-03-26T15:36:29.170Z,95.30
2023-03-26T15:40:07.321Z,95.40
2023-03-26T15:42:51.378Z,95.20
2023-03-26T15:45:33.093Z,95.40
2023-03-26T15:48:26.464Z,94.50
2023-03-26T15:50:58.627Z,95.10
2023-03-26T15:53:38.311Z,95.50
2023-03-26T15:56:17.644Z,96.10
2023-03-26T15:58:53.468Z,96.70
2023-03-26T16:01:34.040Z,96.70
2023-03-26T16:04:14.373Z,95.50
2023-03-26T16:06:53.973Z,93.70
2023-03-26T16:09:45.884Z,93.90
2023-03-26T16:12:30.431Z,94.50
2023-03-26T16:15:29.542Z,94.50
2023-03-26T16:18:35.816Z,95.00
2023-03-26T16:21:31.901Z,94.40
2023-03-26T16:24:18.910Z,94.20
2023-03-26T16:27:07.848Z,94.70
2023-03-26T16:30:14.532Z,95.30
2023-03-26T16:32:44.896Z,95.30
2023-03-26T16:35:53.998Z,95.60
2023-03-26T16:38:27.309Z,95.50
2023-03-26T16:41:02.268Z,95.70
2023-03-26T16:43:51.326Z,96.10
2023-03-26T16:46:34.856Z,96.30
2023-03-26T16:49:16.251Z,96.30
2023-03-26T16:51:58.232Z,96.60
2023-03-26T16:54:34.638Z,96.40
2023-03-26T16:57:17.356Z,96.50
2023-03-26T17:00:27.633Z,96.80
2023-03-26T17:03:13.062Z,97.90
2023-03-26T17:05:57.390Z,97.30
2023-03-26T17:08:35.464Z,97.30
2023-03-26T17:11:20.222Z,97.80
2023-03-26T17:13:55.499Z,97.80
2023-03-26T17:16:27.657Z,98.00
2023-03-26T17:19:05.275Z,98.50
2023-03-26T17:21:47.097Z,91.80
2023-03-26T17:24:26.597Z,89.50
2023-03-26T17:27:01.644Z,90.80
2023-03-26T17:29:41.378Z,92.50
2023-03-26T17:32:12.798Z,94.40
2023-03-26T17:34:53.179Z,94.50
2023-03-26T17:37:44.440Z,95.30
2023-03-26T17:40:47.750Z,95.80
2023-03-26T17:43:35.385Z,96.60
2023-03-26T17:46:06.197Z,97.10
2023-03-26T17:48:38.941Z,97.30
2023-03-26T17:51:24.579Z,97.30
2023-03-26T17:53:53.354Z,97.30
2023-03-26T17:56:27.705Z,97.70
2023-03-26T17:59:11.511Z,97.70
2023-03-26T18:01:44.083Z,97.90
2023-03-26T18:04:18.722Z,97.70
2023-03-26T18:07:04.011Z,97.80
2023-03-26T18:09:45.704Z,97.70
2023-03-26T18:12:50.607Z,97.80
2023-03-26T18:15:33.397Z,98.00
2023-03-26T18:18:10.918Z,98.00
2023-03-26T18:20:42.544Z,98.00
2023-03-26T18:23:21.067Z,98.00
2023-03-26T18:25:54.797Z,98.10
2023-03-26T18:28:31.023Z,98.20
2023-03-26T18:31:09.704Z,98.40
2023-03-26T18:33:44.385Z,98.40
2023-03-26T18:36:14.783Z,98.50
2023-03-26T18:38:44.030Z,98.50
2023-03-26T18:41:23.522Z,98.50
2023-03-26T18:43:51.406Z,98.60
2023-03-26T18:46:19.423Z,98.50
2023-03-26T18:48:47.736Z,98.40
2023-03-26T18:51:22.807Z,98.20
2023-03-26T18:53:56.456Z,98.40
2023-03-26T18:56:30.787Z,98.20
2023-03-26T18:59:00.008Z,98.20
2023-03-26T19:01:32.636Z,98.40
2023-03-26T19:04:03.970Z,98.10
2023-03-26T19:06:35.846Z,98.30
2023-03-26T19:09:16.313Z,98.40
2023-03-26T19:11:50.171Z,98.40
2023-03-26T19:14:20.156Z,98.50
2023-03-26T19:16:51.243Z,98.60
2023-03-26T19:19:23.106Z,98.60
2023-03-26T19:21:51.542Z,98.60
2023-03-26T19:24:21.664Z,98.70
2023-03-26T19:26:49.764Z,98.80
2023-03-26T19:29:22.008Z,98.80
2023-03-26T19:31:52.682Z,98.90
2023-03-26T19:34:31.934Z,98.90
2023-03-26T19:37:01.960Z,98.90
2023-03-26T19:39:40.564Z,98.90
2023-03-26T19:42:13.660Z,98.90
2023-03-26T19:44:42.583Z,98.90
2023-03-26T19:47:18.477Z,98.90
2023-03-26T19:49:53.954Z,99.00
2023-03-26T19:52:24.868Z,99.00
2023-03-26T19:55:02.221Z,99.10
2023-03-26T19:57:31.902Z,99.10
2023-03-26T20:00:00.657Z,99.20
2023-03-26T20:02:28.833Z,99.30
2023-03-26T20:04:56.766Z,99.40
2023-03-26T20:07:35.437Z,99.40
2023-03-26T20:10:06.481Z,99.40
2023-03-26T20:12:34.417Z,99.40
2023-03-26T20:15:02.872Z,99.50
2023-03-26T20:17:34.732Z,99.50
2023-03-26T20:20:05.776Z,99.40
2023-03-26T20:22:33.789Z,99.40
2023-03-26T20:25:03.146Z,99.50
2023-03-26T20:27:32.351Z,99.50
2023-03-26T20:30:00.283Z,99.60
2023-03-26T20:32:28.195Z,99.60
2023-03-26T20:34:57.702Z,99.50
2023-03-26T20:37:25.683Z,99.50
2023-03-26T20:39:53.566Z,99.50
2023-03-26T20:42:21.427Z,99.40
2023-03-26T20:44:51.050Z,99.40
2023-03-26T20:47:18.955Z,99.50
2023-03-26T20:49:46.794Z,99.50
2023-03-26T20:52:15.390Z,99.40
2023-03-26T20:54:43.615Z,99.40
2023-03-26T20:57:13.388Z,99.40
2023-03-26T20:59:42.042Z,99.40
2023-03-26T21:02:13.125Z,99.40
2023-03-26T21:04:41.504Z,99.40
2023-03-26T21:07:17.795Z,99.40
2023-03-26T21:09:47.479Z,99.50
2023-03-26T21:12:22.800Z,99.50
2023-03-26T21:14:51.207Z,99.60
2023-03-26T21:17:26.054Z,99.60
2023-03-26T21:19:54.731Z,99.60
2023-03-26T21:22:31.611Z,99.60
2023-03-26T21:25:18.236Z,99.60
2023-03-26T21:27:55.427Z,99.70
2023-03-26T21:30:23.700Z,99.90
2023-03-26T21:32:53.126Z,99.60
2023-03-26T21:35:21.954Z,99.70
2023-03-26T21:37:50.752Z,99.60
2023-03-26T21:40:19.903Z,99.50
2023-03-26T21:42:50.499Z,99.30
2023-03-26T21:45:19.958Z,99.30
2023-03-26T21:47:48.874Z,99.20
2023-03-26T21:50:21.742Z,99.20
2023-03-26T21:52:50.363Z,98.80
2023-03-26T21:55:20.073Z,98.70
2023-03-26T21:58:09.959Z,98.70
2023-03-26T22:00:46.513Z,98.40
2023-03-26T22:03:24.188Z,98.20
2023-03-26T22:05:58.567Z,98.10
2023-03-26T22:08:30.672Z,97.90
2023-03-26T22:10:58.864Z,97.90
2023-03-26T22:13:27.240Z,98.20
2023-03-26T22:15:56.817Z,98.20
2023-03-26T22:18:26.021Z,97.90
2023-03-26T22:20:55.679Z,98.20
2023-03-26T22:23:23.841Z,97.90
2023-03-26T22:25:52.143Z,97.90
2023-03-26T22:28:20.309Z,97.90
2023-03-26T22:30:48.216Z,98.00
2023-03-26T22:33:17.758Z,98.30
2023-03-26T22:35:46.101Z,98.30
2023-03-26T22:38:16.950Z,98.50
2023-03-26T22:40:44.835Z,98.20
2023-03-26T22:43:12.663Z,98.30
2023-03-26T22:45:41.039Z,98.20
2023-03-26T22:48:08.999Z,98.40
2023-03-26T22:50:36.984Z,98.30
2023-03-26T22:53:04.838Z,98.20
2023-03-26T22:55:34.053Z,97.90
2023-03-26T22:58:01.907Z,97.10
2023-03-26T23:00:30.678Z,97.00
2023-03-26T23:03:00.551Z,96.80
2023-03-26T23:05:29.359Z,96.60
2023-03-26T23:07:57.210Z,96.30
2023-03-26T23:10:25.095Z,96.70
2023-03-26T23:12:54.537Z,96.60
2023-03-26T23:15:22.466Z,96.50
2023-03-26T23:17:54.671Z,96.30
2023-03-26T23:20:23.117Z,95.90
2023-03-26T23:22:51.375Z,95.40
2023-03-26T23:25:19.896Z,94.90
2023-03-26T23:27:48.428Z,94.70
2023-03-26T23:30:17.990Z,94.80
2023-03-26T23:32:47.062Z,94.90
2023-03-26T23:35:15.073Z,95.10
2023-03-26T23:37:43.176Z,94.70
2023-03-26T23:40:13.844Z,94.50
2023-03-26T23:42:42.435Z,93.90
2023-03-26T23:45:10.926Z,93.60
2023-03-26T23:47:42.487Z,92.60
2023-03-26T23:50:11.617Z,93.00
2023-03-26T23:52:39.542Z,92.10
2023-03-26T23:55:08.186Z,92.70
2023-03-26T23:57:37.095Z,93.30
